»·PEaware :: N454MD KCMA-KSNA

N454MD :: KCMA-KSNA

FLIGHT INFORMATION

Flight Status: Arrived
Operator: Privately registered:
United States
More flights under this callsign
Pilot: Marcus G. (20157)
Aircraft: PIPER PA-28 CHEROKEE ARCHER
(P28A)
More flights by this aircraft type
Origin: KCMA Camarillo
United States
Destination: KSNA John Wayne-Orange Co
United States
More flights between these airports :: More routes between these airports
Route: +
File this flight plan on PilotEdge
Remarks: cat10
Altitude:
(Current/Filed)
5,500ft
Speed:
(Current/Filed)
0kts
Departed: 11-Jan-20 06:21 PM
Arrived: 11-Jan-20 07:01 PM
Distance/Time
Traveled:
131nm/0:40
Distance/Time
To Go:
Arrived

Flight Plot

Page will automatically refresh every two minutes.


Map Options




Map Legend


Flown Route
Filed Route
Departure Airport
Arrival Airport
Navaid (VOR, NDB)
Fix

Horizontal Profiles

Position Reports

Time Latitude Longitude Heading Altitude Ground
Speed
11-Jan-20 18:14 34.210350 -119.076470 90 79ft 0kts
11-Jan-20 18:15 34.210510 -119.076182 27 79ft 11kts
11-Jan-20 18:16 34.211252 -119.084003 276 75ft 21kts
11-Jan-20 18:17 34.212886 -119.084618 359 77ft 0kts
11-Jan-20 18:18 34.212938 -119.084618 359 77ft 0kts
11-Jan-20 18:19 34.212938 -119.084618 359 77ft 0kts
11-Jan-20 18:20 34.213940 -119.101250 272 246ft 110kts
11-Jan-20 18:21 34.227395 -119.127109 346 1706ft 102kts
11-Jan-20 18:22 34.242629 -119.102465 102 2912ft 113kts
11-Jan-20 18:23 34.237392 -119.064470 107 4065ft 114kts
11-Jan-20 18:24 34.234368 -119.024625 95 4976ft 127kts
11-Jan-20 18:25 34.233352 -118.980941 97 5539ft 140kts
11-Jan-20 18:26 34.229188 -118.931808 103 5492ft 149kts
11-Jan-20 18:27 34.223941 -118.884794 100 5499ft 139kts
11-Jan-20 18:28 34.222189 -118.838215 97 5490ft 138kts
11-Jan-20 18:29 34.221960 -118.791742 94 5506ft 139kts
11-Jan-20 18:30 34.222464 -118.745308 97 5485ft 138kts
11-Jan-20 18:31 34.220171 -118.698701 99 5517ft 139kts
11-Jan-20 18:32 34.219469 -118.651561 96 5567ft 139kts
11-Jan-20 18:33 34.218236 -118.604346 98 5505ft 134kts
11-Jan-20 18:34 34.206560 -118.563556 151 5494ft 121kts
11-Jan-20 18:35 34.178543 -118.541122 158 5468ft 124kts
11-Jan-20 18:36 34.146600 -118.526656 181 5546ft 121kts
11-Jan-20 18:37 34.114417 -118.512338 163 5464ft 131kts
11-Jan-20 18:38 34.081019 -118.499366 167 5513ft 124kts
11-Jan-20 18:39 34.049057 -118.480172 159 5441ft 131kts
11-Jan-20 18:40 34.016360 -118.466508 174 5526ft 122kts
11-Jan-20 18:41 33.982787 -118.453892 155 5496ft 132kts
11-Jan-20 18:42 33.948118 -118.438603 172 5493ft 127kts
11-Jan-20 18:43 33.916869 -118.414451 133 5441ft 135kts
11-Jan-20 18:44 33.890528 -118.383962 138 5526ft 135kts
11-Jan-20 18:45 33.863361 -118.352109 139 5515ft 134kts
11-Jan-20 18:46 33.837269 -118.321631 142 5406ft 139kts
11-Jan-20 18:47 33.809326 -118.288895 144 5581ft 139kts
11-Jan-20 18:48 33.781033 -118.256231 136 5571ft 137kts
11-Jan-20 18:49 33.754264 -118.222694 141 5507ft 120kts
11-Jan-20 18:50 33.727667 -118.193580 144 5353ft 135kts
11-Jan-20 18:51 33.707202 -118.157635 111 5330ft 142kts
11-Jan-20 18:52 33.701247 -118.111424 107 4837ft 139kts
11-Jan-20 18:53 33.694743 -118.067657 109 3698ft 125kts
11-Jan-20 18:54 33.688934 -118.027508 100 2711ft 123kts
11-Jan-20 18:55 33.685801 -117.986912 106 2512ft 119kts
11-Jan-20 18:56 33.682449 -117.947572 96 2234ft 121kts
11-Jan-20 18:57 33.681942 -117.909529 92 1185ft 112kts
11-Jan-20 18:58 33.688144 -117.876829 65 1098ft 91kts
11-Jan-20 18:59 33.689119 -117.858967 213 679ft 81kts
11-Jan-20 19:00 33.674090 -117.870337 265 59ft 26kts
11-Jan-20 19:01 33.674268 -117.870843 302 59ft 0kts
11-Jan-20 19:02 33.674268 -117.870843 302 59ft 0kts
11-Jan-20 19:03 33.674268 -117.870843 302 59ft 0kts
11-Jan-20 19:04 32.732420 -117.176641 194 22ft 0kts
11-Jan-20 19:05 32.732398 -117.176648 193 22ft 0kts
11-Jan-20 19:06 32.732420 -117.176642 194 22ft 0kts
11-Jan-20 19:07 32.732420 -117.176642 194 22ft 0kts
11-Jan-20 19:08 32.732420 -117.176642 194 22ft 0kts
11-Jan-20 19:09 32.732420 -117.176641 194 22ft 0kts
11-Jan-20 19:10 32.732420 -117.176641 194 22ft 0kts
11-Jan-20 19:11 32.732420 -117.176641 194 22ft 0kts
11-Jan-20 19:12 32.732420 -117.176641 194 22ft 0kts
11-Jan-20 19:13 32.732420 -117.176642 194 22ft 0kts
11-Jan-20 19:14 32.732420 -117.176642 194 22ft 0kts
11-Jan-20 19:15 32.732420 -117.176642 194 22ft 0kts

Navigation Log

Ident Type
Flight plan parsing failed, navigation log unavailable